Fernwood, Washington
Current Conditions -  °F | °C
As of 1:55 AM on Saturday 29 Nov 2014 (Local Time) from KPWT Reporting Station
Broken Clouds Broken Clouds  
Wind Chill: 30°   Ceiling: 1300
Heat Index: 34°   Visibility: 10mi
Dew Point: 34°   Wind: 5mph
Humidity: 100%   Direction: 90°E
Pressure: 29.56"   Gusts: NA
Location:  47.5378°N, 122.589°W
Report Text: KPWT 290955Z AUTO 09004KT 10SM BKN013 BKN110 01/01 A2956 RMK AO1
Loading
Personal Weather Stations






























Interactive Weather Map New forecast layout! Learn more

10-Day Weather Forecast

Advertisements
Track Severe Weather on mobile